Portada
METAR-TAF:

METAR-TAF

Aeroports :

Moody Air Force Base

Valdosta, Geòrgia, Estats Units d'Amèrica

latitud: 30-58N, longitud: 083-12W, altitud: 71 m

Observació

L'informe es va fer fa 16 minuts, a les 23:55 UTC
Vent 4 kt del Nord-Oest
Temperatura 36°C
Humitat 31%
Pressió 1011 hPa
Visibilitat: 16.1 km
Cel clar

METAR: KVAD 232355Z AUTO 31004KT 10SM CLR 36/16 A2986 RMK AO2 SLP111 60000 T03560163 10380 20354 55002 $

Hora: 20:11 (00:11 UTC)


TAF: manca

Observacions i pronòstics meteorològics de més de 4000 aeroports (METAR i TAF).

Les estacions disponibles són els punts grocs i vermells al mapa.

Posi el ratolí al punt desitjat per veure el nom de l'estació.

Feu clic per veure les observacions i els pronòstics meteorològics.

Per canviar el mapa: feu clic els botons verds amb una creu de color negre per apropar; al botó verd amb un guió per allunyar la imatge; o en les fletxes verdes per a mapes adjacents.


METAR-TAF: